Time;durP1;ratioP1;P1;durP2;ratioP2;P2;SDS_P1;SDS_P2;PMS_P1;PMS_P2;Temp;Humidity;BMP_temperature;BMP_pressure;BME280_temperature;BME280_humidity;BME280_pressure;Samples;Min_cycle;Max_cycle;Signal;HPM_P1;HPM_P2
2023/08/30 00:01:36;;;;;;;8.35;3.30;;;18.30;99.90;;;;;;4994700;28;20428;-78
2023/08/30 00:04:04;;;;;;;7.18;3.38;;;18.30;99.90;;;;;;5008314;28;20584;-80
2023/08/30 00:06:32;;;;;;;7.18;3.50;;;18.40;99.90;;;;;;5012021;28;20575;-80
2023/08/30 00:09:00;;;;;;;8.40;3.70;;;18.50;99.90;;;;;;5011790;28;20046;-80
2023/08/30 00:11:28;;;;;;;9.57;3.65;;;18.50;99.90;;;;;;5010742;28;20042;-80
2023/08/30 00:14:05;;;;;;;8.45;2.80;;;18.50;99.90;;;;;;5011664;28;20073;-79
2023/08/30 00:16:34;;;;;;;6.32;2.60;;;18.60;99.90;;;;;;5011529;28;20050;-79
2023/08/30 00:19:01;;;;;;;14.98;3.60;;;18.50;99.90;;;;;;5009645;28;20042;-80
2023/08/30 00:21:29;;;;;;;6.10;2.35;;;18.50;99.90;;;;;;5012945;28;20574;-80
2023/08/30 00:23:56;;;;;;;8.60;3.20;;;18.50;99.90;;;;;;5010315;28;20042;-79
2023/08/30 00:26:24;;;;;;;7.30;2.90;;;18.30;99.90;;;;;;5011823;28;20053;-79
2023/08/30 00:28:51;;;;;;;6.57;3.10;;;18.30;99.90;;;;;;5010604;28;20052;-79
2023/08/30 00:31:18;;;;;;;7.85;3.47;;;18.20;99.90;;;;;;5009911;28;20493;-79
2023/08/30 00:33:47;;;;;;;8.15;2.67;;;18.30;99.90;;;;;;5011337;28;20046;-80
2023/08/30 00:36:17;;;;;;;9.98;3.28;;;18.20;99.90;;;;;;5010431;28;20049;-81
2023/08/30 00:38:44;;;;;;;6.20;3.00;;;18.10;99.90;;;;;;5009697;28;20404;-79
2023/08/30 00:41:11;;;;;;;8.02;3.15;;;18.10;99.90;;;;;;5009854;28;20228;-81
2023/08/30 00:43:40;;;;;;;7.82;3.05;;;18.00;99.90;;;;;;5010032;28;20042;-79
2023/08/30 00:46:07;;;;;;;5.55;2.65;;;18.00;99.90;;;;;;5009864;28;20042;-79
2023/08/30 00:48:34;;;;;;;7.60;3.22;;;18.00;99.90;;;;;;5009531;28;20164;-79
2023/08/30 00:51:03;;;;;;;8.40;3.47;;;18.00;99.90;;;;;;5010100;28;20061;-82
2023/08/30 00:53:31;;;;;;;9.75;2.55;;;18.10;99.90;;;;;;5009773;28;20034;-79
2023/08/30 00:55:58;;;;;;;8.00;3.05;;;18.10;99.90;;;;;;5011869;28;20528;-81
2023/08/30 00:58:27;;;;;;;8.23;3.03;;;18.00;99.90;;;;;;5008710;28;20069;-79
2023/08/30 01:00:55;;;;;;;10.68;3.90;;;18.00;99.90;;;;;;5010108;28;20180;-80
2023/08/30 01:03:23;;;;;;;9.30;3.50;;;18.00;99.90;;;;;;5010105;28;20049;-80
2023/08/30 01:05:50;;;;;;;8.50;3.58;;;18.10;99.90;;;;;;5010000;28;20038;-79
2023/08/30 01:08:19;;;;;;;9.82;3.00;;;18.00;99.90;;;;;;5009791;28;20123;-80
2023/08/30 01:10:56;;;;;;;9.00;3.45;;;17.80;99.90;;;;;;5009549;28;20401;-81
2023/08/30 01:13:27;;;;;;;9.70;3.97;;;17.70;99.90;;;;;;5009139;28;20070;-80
2023/08/30 01:15:56;;;;;;;10.15;3.72;;;17.60;99.90;;;;;;5008151;28;20122;-82
2023/08/30 01:18:25;;;;;;;9.55;4.47;;;17.60;99.90;;;;;;5009156;28;20038;-80
2023/08/30 01:20:54;;;;;;;8.45;4.18;;;17.80;99.90;;;;;;5012023;28;20046;-81
2023/08/30 01:23:35;;;;;;;7.88;3.45;;;17.80;99.90;;;;;;5009765;28;20169;-81
2023/08/30 01:26:11;;;;;;;10.82;5.03;;;17.80;99.90;;;;;;5013241;28;20034;-80
2023/08/30 01:28:40;;;;;;;8.48;4.05;;;17.80;99.90;;;;;;5025335;28;20049;-79
2023/08/30 01:31:10;;;;;;;7.97;3.45;;;17.70;99.90;;;;;;5009165;28;20050;-79
2023/08/30 01:33:38;;;;;;;9.65;3.83;;;17.60;99.90;;;;;;5009623;28;20400;-79
2023/08/30 01:36:07;;;;;;;11.60;4.18;;;17.60;99.90;;;;;;5009455;28;20520;-80
2023/08/30 01:38:35;;;;;;;10.80;3.47;;;17.70;99.90;;;;;;5006709;28;20394;-81
2023/08/30 01:41:03;;;;;;;10.02;5.13;;;17.80;99.90;;;;;;5009931;28;20065;-80
2023/08/30 01:43:32;;;;;;;11.70;4.10;;;17.80;99.90;;;;;;5010311;28;20065;-79
2023/08/30 01:46:04;;;;;;;9.02;4.20;;;17.80;99.90;;;;;;5010223;28;20512;-79
2023/08/30 01:48:33;;;;;;;8.98;4.82;;;17.60;99.90;;;;;;5009172;28;20112;-78
2023/08/30 01:51:01;;;;;;;9.40;3.63;;;17.30;99.90;;;;;;5008738;28;20049;-80
2023/08/30 01:53:29;;;;;;;7.72;3.88;;;17.30;99.90;;;;;;5008180;28;20042;-80
2023/08/30 01:55:57;;;;;;;8.98;3.92;;;17.30;99.90;;;;;;5007744;28;20078;-79
2023/08/30 01:58:26;;;;;;;10.15;3.83;;;17.20;99.90;;;;;;5007217;28;20060;-79
2023/08/30 02:00:56;;;;;;;6.13;2.88;;;17.20;99.90;;;;;;5006875;28;20054;-78
2023/08/30 02:03:25;;;;;;;7.93;3.00;;;17.20;99.90;;;;;;5008243;28;20486;-81
2023/08/30 02:06:04;;;;;;;8.02;3.10;;;17.40;99.90;;;;;;5008472;28;20034;-79
2023/08/30 02:08:39;;;;;;;6.95;3.03;;;17.50;99.90;;;;;;5024435;28;20049;-79
2023/08/30 02:11:23;;;;;;;5.25;2.65;;;17.60;99.90;;;;;;5008093;28;20053;-80
2023/08/30 02:13:51;;;;;;;8.95;3.25;;;17.70;99.90;;;;;;5023754;28;20046;-80
2023/08/30 02:16:20;;;;;;;9.30;3.50;;;17.70;99.90;;;;;;5008665;28;20034;-79
2023/08/30 02:18:50;;;;;;;8.73;3.63;;;17.80;99.90;;;;;;5008576;28;20049;-80
2023/08/30 02:21:18;;;;;;;7.90;3.42;;;17.70;99.90;;;;;;5025630;28;20042;-80
2023/08/30 02:23:50;;;;;;;9.35;3.63;;;17.70;99.90;;;;;;5007671;28;20100;-79
2023/08/30 02:26:19;;;;;;;6.72;3.10;;;17.70;99.90;;;;;;5008709;28;20096;-79
2023/08/30 02:28:48;;;;;;;10.40;3.28;;;17.70;99.90;;;;;;5008118;28;20065;-81
2023/08/30 02:31:15;;;;;;;6.88;3.30;;;17.60;99.90;;;;;;5008286;28;20064;-80
2023/08/30 02:33:43;;;;;;;9.32;3.25;;;17.60;99.90;;;;;;5008757;28;20086;-80
2023/08/30 02:36:14;;;;;;;7.03;3.17;;;17.50;99.90;;;;;;5008074;28;20042;-80
2023/08/30 02:38:41;;;;;;;11.00;3.45;;;17.50;99.90;;;;;;5007480;28;20068;-81
2023/08/30 02:41:10;;;;;;;6.00;3.42;;;17.60;99.90;;;;;;5006120;28;20129;-79
2023/08/30 02:43:37;;;;;;;9.15;3.60;;;17.60;99.90;;;;;;5007381;28;20370;-80
2023/08/30 02:46:05;;;;;;;10.77;3.63;;;17.60;99.90;;;;;;5008100;28;20389;-78
2023/08/30 02:48:33;;;;;;;14.32;4.07;;;17.70;99.90;;;;;;5007638;28;20127;-80
2023/08/30 02:51:00;;;;;;;10.30;4.63;;;17.70;99.90;;;;;;5007049;28;20563;-79
2023/08/30 02:53:29;;;;;;;7.80;3.50;;;17.70;99.90;;;;;;5006577;28;20052;-79
2023/08/30 02:55:57;;;;;;;10.38;4.15;;;17.70;99.90;;;;;;5007715;28;20037;-79
2023/08/30 02:58:25;;;;;;;8.20;4.20;;;17.60;99.90;;;;;;5006941;28;20112;-81
2023/08/30 03:00:58;;;;;;;12.48;4.43;;;17.40;99.90;;;;;;5008196;28;20544;-79
2023/08/30 03:03:25;;;;;;;9.80;3.88;;;17.40;99.90;;;;;;5009073;28;20050;-80
2023/08/30 03:05:54;;;;;;;8.68;4.15;;;17.40;99.90;;;;;;5007166;28;20045;-79
2023/08/30 03:08:22;;;;;;;8.63;3.63;;;17.50;99.90;;;;;;4990868;28;20068;-79
2023/08/30 03:10:51;;;;;;;7.00;3.03;;;17.60;99.90;;;;;;4991353;28;20096;-81
2023/08/30 03:13:19;;;;;;;10.55;3.58;;;17.70;99.90;;;;;;4989190;28;20053;-79
2023/08/30 03:15:49;;;;;;;10.77;4.00;;;17.70;99.90;;;;;;4990616;28;20153;-79
2023/08/30 03:18:16;;;;;;;8.35;3.67;;;17.80;99.90;;;;;;4991351;28;20053;-80
2023/08/30 03:20:44;;;;;;;9.30;3.80;;;17.90;99.90;;;;;;5007598;28;20129;-80
2023/08/30 03:23:11;;;;;;;11.93;3.63;;;17.80;99.90;;;;;;4990737;28;20112;-79
2023/08/30 03:25:39;;;;;;;13.35;3.92;;;17.70;99.90;;;;;;4990306;28;20042;-81
2023/08/30 03:28:08;;;;;;;11.38;4.35;;;17.70;99.90;;;;;;4990165;28;20188;-80
2023/08/30 03:30:36;;;;;;;8.40;3.67;;;17.70;99.90;;;;;;4991354;28;20054;-80
2023/08/30 03:33:04;;;;;;;8.50;3.90;;;17.60;99.90;;;;;;4989961;28;20112;-80
2023/08/30 03:35:35;;;;;;;8.07;3.63;;;17.50;99.90;;;;;;4990455;28;20034;-80
2023/08/30 03:38:02;;;;;;;8.88;4.07;;;17.60;99.90;;;;;;4990367;28;20041;-79
2023/08/30 03:40:31;;;;;;;12.32;4.50;;;17.60;99.90;;;;;;5007966;28;20220;-81
2023/08/30 03:42:58;;;;;;;8.80;3.75;;;17.70;99.90;;;;;;4990259;28;20049;-79
2023/08/30 03:45:27;;;;;;;8.98;3.72;;;17.60;99.90;;;;;;5009260;28;20703;-80
2023/08/30 03:47:55;;;;;;;8.45;3.72;;;17.60;99.90;;;;;;4990072;28;20049;-79
2023/08/30 03:50:22;;;;;;;9.05;3.60;;;17.70;99.90;;;;;;5007867;28;20104;-79
2023/08/30 03:52:50;;;;;;;8.63;4.00;;;17.70;99.90;;;;;;4990801;28;20050;-80
2023/08/30 03:55:18;;;;;;;8.63;3.78;;;17.70;99.90;;;;;;4991217;28;20100;-79
2023/08/30 03:57:45;;;;;;;8.43;3.80;;;17.40;99.90;;;;;;4994044;28;20073;-78
2023/08/30 04:00:13;;;;;;;8.98;3.88;;;17.40;99.90;;;;;;4994817;28;20445;-80
2023/08/30 04:02:45;;;;;;;11.30;4.45;;;17.40;99.90;;;;;;5010805;28;20058;-80
2023/08/30 04:05:13;;;;;;;11.75;4.30;;;17.30;99.90;;;;;;5012785;28;20038;-80
2023/08/30 04:07:41;;;;;;;11.43;4.90;;;17.30;99.90;;;;;;5007579;28;20490;-80
2023/08/30 04:10:09;;;;;;;8.88;4.25;;;17.20;99.90;;;;;;5006276;28;20433;-80
2023/08/30 04:12:37;;;;;;;10.80;4.22;;;17.10;99.90;;;;;;5007170;28;20406;-79
2023/08/30 04:15:06;;;;;;;9.18;4.43;;;17.00;99.90;;;;;;4990477;28;20233;-79
2023/08/30 04:17:34;;;;;;;12.63;5.03;;;17.00;99.90;;;;;;4990017;28;20401;-80
2023/08/30 04:20:04;;;;;;;7.88;4.20;;;17.00;99.90;;;;;;4989906;28;20077;-80
2023/08/30 04:22:34;;;;;;;9.45;4.55;;;17.10;99.90;;;;;;4990167;28;20057;-79
2023/08/30 04:25:02;;;;;;;14.38;4.93;;;17.20;99.90;;;;;;5005763;28;20501;-81
2023/08/30 04:27:30;;;;;;;17.38;4.50;;;17.20;99.90;;;;;;4990460;28;20050;-79
2023/08/30 04:29:58;;;;;;;11.15;4.03;;;17.30;99.90;;;;;;5006757;28;20092;-82
2023/08/30 04:32:25;;;;;;;12.02;3.92;;;17.50;99.90;;;;;;5009337;28;20559;-80
2023/08/30 04:34:53;;;;;;;8.52;3.60;;;17.60;99.90;;;;;;4994087;28;20042;-80
2023/08/30 04:37:22;;;;;;;12.68;4.35;;;17.60;99.90;;;;;;4992389;28;20133;-81
2023/08/30 04:39:50;;;;;;;32.55;6.43;;;17.60;99.90;;;;;;5009457;28;20038;-78
2023/08/30 04:42:18;;;;;;;10.73;3.75;;;17.60;99.90;;;;;;4991434;28;20050;-78
2023/08/30 04:44:45;;;;;;;8.23;3.63;;;17.60;99.90;;;;;;4992726;28;20046;-81
2023/08/30 04:47:13;;;;;;;10.23;4.32;;;17.60;99.90;;;;;;4992310;28;20069;-80
2023/08/30 04:49:41;;;;;;;10.55;3.28;;;17.70;99.90;;;;;;4991229;28;20049;-78
2023/08/30 04:52:08;;;;;;;10.18;4.20;;;17.70;99.90;;;;;;4993479;28;20200;-80
2023/08/30 04:54:38;;;;;;;10.85;4.47;;;17.80;99.90;;;;;;5009029;28;20096;-81
2023/08/30 04:57:06;;;;;;;11.32;4.28;;;17.80;99.90;;;;;;4993320;28;20050;-78
2023/08/30 04:59:35;;;;;;;10.93;4.90;;;17.80;99.90;;;;;;4993868;28;20697;-80
2023/08/30 05:02:02;;;;;;;14.77;6.40;;;17.90;99.90;;;;;;4992278;28;20120;-81
2023/08/30 05:04:31;;;;;;;11.55;5.30;;;17.90;99.90;;;;;;5010514;28;20046;-81
2023/08/30 05:06:59;;;;;;;8.50;4.95;;;18.00;99.90;;;;;;4992642;28;20141;-78
2023/08/30 05:09:26;;;;;;;13.48;4.40;;;18.10;99.90;;;;;;4993556;28;20141;-79
2023/08/30 05:11:56;;;;;;;13.35;4.80;;;18.20;99.90;;;;;;4992909;28;20156;-80
2023/08/30 05:14:24;;;;;;;9.38;4.97;;;18.30;99.90;;;;;;4993467;28;20046;-80
2023/08/30 05:16:51;;;;;;;9.90;4.60;;;18.40;99.90;;;;;;4994650;28;20038;-81
2023/08/30 05:19:22;;;;;;;12.95;4.45;;;18.60;99.90;;;;;;4994511;28;20046;-81
2023/08/30 05:21:54;;;;;;;11.88;4.38;;;18.60;99.90;;;;;;4993249;28;20050;-80
2023/08/30 05:24:22;;;;;;;11.07;5.00;;;18.60;99.90;;;;;;4993107;28;20108;-80
2023/08/30 05:26:49;;;;;;;14.15;4.78;;;18.60;99.90;;;;;;4993410;28;20055;-79
2023/08/30 05:29:20;;;;;;;9.60;4.00;;;18.60;99.90;;;;;;4992449;28;20081;-81
2023/08/30 05:31:48;;;;;;;13.98;7.00;;;18.60;99.90;;;;;;4992059;28;20046;-80
2023/08/30 05:34:26;;;;;;;11.38;7.03;;;18.60;99.90;;;;;;4991663;28;20054;-81
2023/08/30 05:37:18;;;;;;;11.48;6.65;;;18.70;99.90;;;;;;5008764;28;20052;-80
2023/08/30 05:39:59;;;;;;;11.95;5.28;;;18.80;99.90;;;;;;4992033;28;20042;-78
2023/08/30 05:42:26;;;;;;;10.57;4.00;;;18.80;99.90;;;;;;5137289;23;20046;-80
2023/08/30 05:44:58;;;;;;;11.32;6.57;;;18.80;99.90;;;;;;4970798;28;20121;-81
2023/08/30 05:47:26;;;;;;;15.32;4.97;;;18.80;99.90;;;;;;4972941;28;20129;-79
2023/08/30 05:49:53;;;;;;;11.63;7.35;;;18.70;99.90;;;;;;4989478;28;20054;-78
2023/08/30 05:52:21;;;;;;;15.40;6.38;;;18.60;99.90;;;;;;4984800;28;20048;-78
2023/08/30 05:54:48;;;;;;;10.70;4.78;;;18.60;99.90;;;;;;4992732;28;20401;-81
2023/08/30 05:57:16;;;;;;;12.88;4.65;;;18.60;99.90;;;;;;4993731;28;20065;-77
2023/08/30 05:59:44;;;;;;;10.35;4.35;;;18.40;99.90;;;;;;4993730;28;20132;-78
2023/08/30 06:02:13;;;;;;;9.40;4.60;;;18.50;99.90;;;;;;5010551;28;20148;-80
2023/08/30 06:04:40;;;;;;;9.75;4.10;;;18.60;99.90;;;;;;4993501;28;20071;-79
2023/08/30 06:07:08;;;;;;;8.80;4.15;;;18.70;99.90;;;;;;4992660;28;20061;-80
2023/08/30 06:09:35;;;;;;;11.25;4.88;;;18.80;99.90;;;;;;4991481;28;20061;-81
2023/08/30 06:12:03;;;;;;;11.23;6.82;;;19.10;99.90;;;;;;4991530;28;20528;-81
2023/08/30 06:14:31;;;;;;;14.70;9.73;;;19.20;99.90;;;;;;5008853;28;20108;-80
2023/08/30 06:16:58;;;;;;;16.65;7.35;;;19.50;99.90;;;;;;5009300;28;20054;-82
2023/08/30 06:19:27;;;;;;;14.38;7.10;;;19.60;99.90;;;;;;5006957;28;20116;-81
2023/08/30 06:21:55;;;;;;;15.70;7.32;;;19.70;99.90;;;;;;5007721;28;20120;-80
2023/08/30 06:24:23;;;;;;;9.45;5.18;;;19.80;99.90;;;;;;4991610;28;20444;-82
2023/08/30 06:26:50;;;;;;;13.43;5.07;;;19.90;99.90;;;;;;5008364;28;20086;-82
2023/08/30 06:29:18;;;;;;;11.60;4.07;;;19.90;99.90;;;;;;4990206;28;20064;-81
2023/08/30 06:31:46;;;;;;;16.00;8.32;;;19.80;99.90;;;;;;5008259;28;20052;-81
2023/08/30 06:34:13;;;;;;;12.10;5.93;;;19.70;99.90;;;;;;5009462;28;20050;-81
2023/08/30 06:36:42;;;;;;;10.35;5.63;;;19.80;99.90;;;;;;4992171;28;20378;-81
2023/08/30 06:39:10;;;;;;;12.05;4.70;;;20.00;99.90;;;;;;4991053;28;20469;-80
2023/08/30 06:41:37;;;;;;;11.35;4.63;;;20.20;99.90;;;;;;4990935;28;20045;-81
2023/08/30 06:44:05;;;;;;;11.85;4.30;;;20.20;99.90;;;;;;4992212;28;20544;-80
2023/08/30 06:46:33;;;;;;;10.50;5.22;;;20.30;99.90;;;;;;5009612;28;20505;-80
2023/08/30 06:49:00;;;;;;;13.60;5.45;;;20.40;99.90;;;;;;4988757;28;20052;-80
2023/08/30 06:51:28;;;;;;;10.45;4.43;;;20.40;99.90;;;;;;4990677;28;20042;-82
2023/08/30 06:54:00;;;;;;;16.65;9.95;;;20.40;99.90;;;;;;5008066;28;20053;-80
2023/08/30 06:56:27;;;;;;;30.63;15.10;;;20.40;99.90;;;;;;4990882;28;20038;-80
2023/08/30 06:58:55;;;;;;;12.05;5.97;;;20.50;99.90;;;;;;4991735;28;20049;-79
2023/08/30 07:01:22;;;;;;;11.40;5.10;;;20.70;99.90;;;;;;4992441;28;20120;-82
2023/08/30 07:03:50;;;;;;;14.38;5.30;;;20.70;99.90;;;;;;4991299;28;20053;-82
2023/08/30 07:06:17;;;;;;;19.58;6.18;;;20.80;99.90;;;;;;5007778;28;20046;-83
2023/08/30 07:08:45;;;;;;;12.10;4.78;;;21.00;99.90;;;;;;4990804;28;20524;-82
2023/08/30 07:11:14;;;;;;;10.93;4.60;;;21.40;99.90;;;;;;4990416;28;20077;-81
2023/08/30 07:13:41;;;;;;;9.55;4.82;;;21.80;99.90;;;;;;5007781;28;20046;-81
2023/08/30 07:16:09;;;;;;;11.82;5.05;;;22.30;99.90;;;;;;4991169;28;20054;-80
2023/08/30 07:18:36;;;;;;;11.15;5.28;;;22.70;99.90;;;;;;5008820;28;20107;-82
2023/08/30 07:21:04;;;;;;;8.50;3.65;;;22.90;99.90;;;;;;4991128;28;20088;-80
2023/08/30 07:23:31;;;;;;;12.63;5.72;;;23.00;99.90;;;;;;5007199;28;20062;-81
2023/08/30 07:25:59;;;;;;;7.82;4.85;;;23.00;99.90;;;;;;5006363;28;20454;-78
2023/08/30 07:28:28;;;;;;;8.30;4.30;;;23.30;99.90;;;;;;5006426;28;20156;-78
2023/08/30 07:31:03;;;;;;;8.88;3.95;;;23.60;99.90;;;;;;4990585;28;20088;-80
2023/08/30 07:33:31;;;;;;;8.25;3.80;;;23.70;99.90;;;;;;5008270;28;20466;-80
2023/08/30 07:35:58;;;;;;;7.88;3.90;;;23.70;99.90;;;;;;4990605;28;20462;-79
2023/08/30 07:38:26;;;;;;;5.47;3.20;;;23.80;99.90;;;;;;5008539;28;20152;-80
2023/08/30 07:40:54;;;;;;;6.68;4.32;;;23.90;99.90;;;;;;4989986;28;20050;-80
2023/08/30 07:43:22;;;;;;;8.43;4.32;;;24.00;99.90;;;;;;5007861;28;20112;-77
2023/08/30 07:45:51;;;;;;;6.05;3.30;;;24.10;99.90;;;;;;5009516;28;20115;-80
2023/08/30 07:48:19;;;;;;;8.90;3.83;;;24.10;99.90;;;;;;5007552;28;20596;-78
2023/08/30 07:50:46;;;;;;;7.72;3.90;;;24.10;99.90;;;;;;4991678;28;20046;-80
2023/08/30 07:53:14;;;;;;;7.00;3.53;;;24.40;99.90;;;;;;5009399;28;20046;-81
2023/08/30 07:55:41;;;;;;;10.68;2.63;;;24.80;99.90;;;;;;5008517;28;20501;-80
2023/08/30 07:58:10;;;;;;;6.65;3.95;;;24.90;99.90;;;;;;5006525;28;20050;-79
2023/08/30 08:00:37;;;;;;;7.72;3.70;;;25.00;99.90;;;;;;5009427;28;20509;-80
2023/08/30 08:03:07;;;;;;;11.23;4.90;;;24.80;99.90;;;;;;4992672;28;20382;-81
2023/08/30 08:05:36;;;;;;;10.55;5.75;;;24.60;99.90;;;;;;5011432;28;20130;-79
2023/08/30 08:08:04;;;;;;;5.30;3.42;;;24.90;99.90;;;;;;4993116;28;20132;-80
2023/08/30 08:10:34;;;;;;;5.75;3.20;;;25.10;99.90;;;;;;5010111;28;20045;-81
2023/08/30 08:13:01;;;;;;;9.20;3.63;;;25.30;99.90;;;;;;5010462;28;20077;-79
2023/08/30 08:15:30;;;;;;;10.02;6.47;;;25.30;99.90;;;;;;5012261;28;20548;-81
2023/08/30 08:17:58;;;;;;;8.63;3.85;;;25.50;99.90;;;;;;4993975;28;20050;-79
2023/08/30 08:20:27;;;;;;;35.30;5.28;;;25.50;99.90;;;;;;5011220;28;20104;-81
2023/08/30 08:22:54;;;;;;;5.85;3.13;;;25.50;99.90;;;;;;5011219;28;20034;-79
2023/08/30 08:25:23;;;;;;;6.13;3.17;;;25.30;99.90;;;;;;5010882;28;20038;-78
2023/08/30 08:27:51;;;;;;;6.35;2.53;;;25.20;99.90;;;;;;5011934;28;20069;-79
2023/08/30 08:30:20;;;;;;;6.60;3.10;;;25.10;99.90;;;;;;5011357;28;20066;-77
2023/08/30 08:32:48;;;;;;;7.63;2.45;;;25.10;99.90;;;;;;5011868;28;20705;-80
2023/08/30 08:35:16;;;;;;;9.25;3.35;;;25.10;99.90;;;;;;5011241;28;20230;-80
2023/08/30 08:37:45;;;;;;;6.60;3.00;;;25.20;99.90;;;;;;4994366;28;20049;-79
2023/08/30 08:40:12;;;;;;;5.22;2.53;;;25.20;99.90;;;;;;5011309;28;20108;-78
2023/08/30 08:42:40;;;;;;;6.10;3.45;;;25.30;99.90;;;;;;4993231;28;20563;-79
2023/08/30 08:45:11;;;;;;;5.03;2.60;;;25.40;99.90;;;;;;4993746;28;20108;-79
2023/08/30 08:47:39;;;;;;;6.55;2.75;;;25.40;99.90;;;;;;5009618;28;20046;-79
2023/08/30 08:50:07;;;;;;;6.57;3.00;;;25.50;99.90;;;;;;5010368;28;20100;-80
2023/08/30 08:52:35;;;;;;;7.20;3.85;;;25.60;99.90;;;;;;5009801;28;20046;-78
2023/08/30 08:55:05;;;;;;;6.60;3.38;;;25.70;99.90;;;;;;4993370;28;20104;-80
2023/08/30 08:57:32;;;;;;;9.02;3.03;;;25.90;99.90;;;;;;4993890;28;20140;-80
2023/08/30 09:00:00;;;;;;;6.38;3.38;;;25.80;99.90;;;;;;5010860;28;20347;-80
2023/08/30 09:02:28;;;;;;;6.20;3.08;;;25.70;99.90;;;;;;5010137;28;20577;-79
2023/08/30 09:04:58;;;;;;;5.10;2.97;;;25.90;99.90;;;;;;4993335;28;20042;-80
2023/08/30 09:07:28;;;;;;;5.00;2.35;;;26.00;99.90;;;;;;5010262;28;20089;-80
2023/08/30 09:09:56;;;;;;;5.78;3.03;;;26.10;99.90;;;;;;4992486;28;20494;-79
2023/08/30 09:12:25;;;;;;;7.68;2.80;;;26.20;99.90;;;;;;4993597;28;20041;-79
2023/08/30 09:14:56;;;;;;;4.82;2.75;;;26.30;99.90;;;;;;5009316;28;20074;-77
2023/08/30 09:17:25;;;;;;;6.20;2.75;;;26.20;99.90;;;;;;5010974;28;20100;-79
2023/08/30 09:19:52;;;;;;;5.60;2.80;;;26.00;99.90;;;;;;5011237;28;20096;-78
2023/08/30 09:22:20;;;;;;;6.35;3.10;;;25.80;99.90;;;;;;4992025;28;20042;-78
2023/08/30 09:24:47;;;;;;;6.50;3.30;;;25.80;99.90;;;;;;5011956;28;20073;-81
2023/08/30 09:27:15;;;;;;;9.00;3.50;;;25.90;99.90;;;;;;5010032;28;20134;-81
2023/08/30 09:29:44;;;;;;;9.57;3.92;;;26.10;99.90;;;;;;4993217;28;20049;-77
2023/08/30 09:32:12;;;;;;;15.07;4.35;;;26.10;99.90;;;;;;5009428;28;20060;-80
2023/08/30 09:34:48;;;;;;;10.77;4.22;;;26.10;99.90;;;;;;5010294;28;20042;-79
2023/08/30 09:37:21;;;;;;;9.55;4.00;;;26.30;99.90;;;;;;4992523;28;20045;-76
2023/08/30 09:39:51;;;;;;;11.18;4.18;;;26.20;99.90;;;;;;5009598;28;20129;-79
2023/08/30 09:42:19;;;;;;;7.85;4.13;;;26.40;99.90;;;;;;5009749;28;20077;-78
2023/08/30 09:44:48;;;;;;;5.70;2.47;;;26.40;99.90;;;;;;5010714;28;20057;-79
2023/08/30 09:47:16;;;;;;;8.65;3.47;;;26.30;99.90;;;;;;4992166;28;20049;-79
2023/08/30 09:49:46;;;;;;;10.30;3.33;;;26.20;99.90;;;;;;5008610;28;20568;-78
2023/08/30 09:52:16;;;;;;;7.97;3.05;;;26.10;99.90;;;;;;5009590;28;20117;-79
2023/08/30 09:54:45;;;;;;;10.45;3.72;;;25.70;99.90;;;;;;5010588;28;20042;-79
2023/08/30 09:57:13;;;;;;;8.80;3.67;;;25.90;99.90;;;;;;5010131;28;20034;-79
2023/08/30 09:59:41;;;;;;;8.43;3.42;;;26.20;99.90;;;;;;5010616;28;20113;-79
2023/08/30 10:04:42;;;;;;;8.40;3.53;;;26.40;99.90;;;;;;4935383;29;20044;-80
2023/08/30 10:07:10;;;;;;;8.27;3.95;;;26.40;99.90;;;;;;4935923;29;20048;-80
2023/08/30 10:09:39;;;;;;;8.07;3.17;;;26.50;99.90;;;;;;4917491;29;20102;-80
2023/08/30 10:12:08;;;;;;;9.20;3.47;;;26.70;99.90;;;;;;4953314;29;20043;-79
2023/08/30 10:14:36;;;;;;;8.48;3.58;;;27.00;99.90;;;;;;4950583;29;20083;-79
2023/08/30 10:17:04;;;;;;;7.13;4.25;;;27.00;99.90;;;;;;4951358;29;20039;-80
2023/08/30 10:19:33;;;;;;;8.52;3.75;;;27.00;99.90;;;;;;4952008;29;20044;-80
2023/08/30 10:22:04;;;;;;;7.03;2.75;;;27.10;99.90;;;;;;4953524;29;20119;-81
2023/08/30 10:24:36;;;;;;;6.78;3.53;;;27.20;99.90;;;;;;4951341;28;20645;-79
2023/08/30 10:27:08;;;;;;;9.85;4.93;;;27.30;99.90;;;;;;4952837;28;20055;-79
2023/08/30 10:29:37;;;;;;;10.70;5.05;;;27.40;99.90;;;;;;4951660;28;20143;-81
2023/08/30 10:32:06;;;;;;;8.20;3.78;;;27.50;99.90;;;;;;4951435;28;20078;-79
2023/08/30 10:34:34;;;;;;;8.68;4.20;;;28.00;99.90;;;;;;4935628;28;20045;-80
2023/08/30 10:37:04;;;;;;;8.85;3.60;;;28.40;99.90;;;;;;4953124;28;20058;-79
2023/08/30 10:39:36;;;;;;;9.20;4.28;;;28.60;99.90;;;;;;4955441;28;20079;-80
2023/08/30 10:42:10;;;;;;;9.63;4.50;;;28.70;99.90;;;;;;4953372;28;20043;-79
2023/08/30 10:44:49;;;;;;;7.13;3.10;;;28.60;99.90;;;;;;4955070;28;20047;-79
2023/08/30 10:47:20;;;;;;;10.18;4.90;;;28.60;99.90;;;;;;4955314;28;20106;-80
2023/08/30 10:49:52;;;;;;;8.77;5.20;;;28.60;99.90;;;;;;4954767;29;20265;-80
2023/08/30 10:52:21;;;;;;;10.05;4.00;;;28.60;99.90;;;;;;4953802;28;20463;-80
2023/08/30 10:54:50;;;;;;;11.50;4.88;;;28.70;99.90;;;;;;4937920;29;20560;-82
2023/08/30 10:57:21;;;;;;;8.95;3.90;;;28.80;99.90;;;;;;4953242;28;20051;-80
2023/08/30 11:00:09;;;;;;;8.55;3.80;;;28.80;99.90;;;;;;4952439;28;20082;-80
2023/08/30 11:02:37;;;;;;;8.57;3.78;;;28.80;99.90;;;;;;4949872;28;20112;-80
2023/08/30 11:05:08;;;;;;;5.80;2.85;;;28.80;99.90;;;;;;4933507;29;20146;-80
2023/08/30 11:07:37;;;;;;;8.07;4.53;;;28.90;99.90;;;;;;4949249;28;20064;-79
2023/08/30 11:10:06;;;;;;;16.00;11.32;;;28.90;99.90;;;;;;4956075;28;20074;-80
2023/08/30 11:12:34;;;;;;;10.52;4.03;;;29.10;99.90;;;;;;4951649;29;20043;-80
2023/08/30 11:15:02;;;;;;;6.30;3.88;;;29.20;99.90;;;;;;4948438;29;20135;-80
2023/08/30 11:17:30;;;;;;;7.07;4.00;;;29.20;99.90;;;;;;4938733;29;20427;-81
2023/08/30 11:20:07;;;;;;;7.40;4.97;;;29.20;99.90;;;;;;4937080;29;20093;-78
2023/08/30 11:22:38;;;;;;;6.75;2.78;;;29.20;99.90;;;;;;4935796;29;20054;-80
2023/08/30 11:25:07;;;;;;;5.90;3.42;;;29.30;99.90;;;;;;4935302;29;20050;-79
2023/08/30 11:27:34;;;;;;;10.45;7.13;;;29.40;99.90;;;;;;4935153;29;20048;-80
2023/08/30 11:30:05;;;;;;;7.10;4.18;;;29.50;99.90;;;;;;4934630;29;20175;-80
2023/08/30 11:32:34;;;;;;;8.02;3.75;;;29.60;99.90;;;;;;4934682;29;20047;-79
2023/08/30 11:35:02;;;;;;;11.60;4.38;;;29.80;99.90;;;;;;4935002;29;20134;-79
2023/08/30 11:37:30;;;;;;;7.25;4.03;;;29.80;99.90;;;;;;4934679;29;20063;-79
2023/08/30 11:40:38;;;;;;;6.32;3.30;;;29.80;99.90;;;;;;4938209;29;20038;-91
2023/08/30 11:43:07;;;;;;;39.65;28.88;;;29.90;99.90;;;;;;4938897;29;20393;-78
2023/08/30 11:45:34;;;;;;;7.75;3.30;;;29.90;99.90;;;;;;4936115;29;20862;-80
2023/08/30 13:14:10;;;;;;;8.20;4.10;;;25.80;99.90;;;;;;4828770;29;20085;-86
2023/08/30 13:53:06;;;;;;;9.43;5.28;;;26.30;99.90;;;;;;4768078;30;20113;-84
2023/08/30 13:55:34;;;;;;;7.10;5.20;;;26.30;99.90;;;;;;4767504;30;20055;-82
2023/08/30 13:58:02;;;;;;;6.22;5.15;;;25.90;99.90;;;;;;4789941;29;20065;-83
2023/08/30 14:00:32;;;;;;;7.90;4.68;;;25.70;99.90;;;;;;4838813;29;20129;-81
2023/08/30 14:03:00;;;;;;;6.40;5.18;;;25.60;99.90;;;;;;4837423;29;20104;-83
2023/08/30 14:05:28;;;;;;;9.68;5.47;;;25.70;99.90;;;;;;4883922;29;20058;-82
2023/08/30 14:07:55;;;;;;;7.25;5.78;;;25.60;99.90;;;;;;4924612;28;20422;-79
2023/08/30 14:10:24;;;;;;;11.65;5.38;;;25.60;99.90;;;;;;4963594;28;20047;-82
2023/08/30 14:12:52;;;;;;;7.95;5.82;;;25.40;99.90;;;;;;4959714;28;20138;-85
2023/08/30 14:15:19;;;;;;;9.02;5.60;;;25.40;99.90;;;;;;4960054;28;20065;-84
2023/08/30 14:17:47;;;;;;;9.73;5.35;;;25.60;99.90;;;;;;4961721;28;20043;-80
2023/08/30 14:20:14;;;;;;;5.95;5.22;;;25.80;99.90;;;;;;4960128;28;20219;-83
2023/08/30 14:22:42;;;;;;;10.77;5.63;;;25.80;99.90;;;;;;4941847;28;20047;-83
2023/08/30 14:25:10;;;;;;;6.75;5.85;;;25.80;99.90;;;;;;4958279;28;20151;-83
2023/08/30 14:27:39;;;;;;;8.65;6.85;;;26.00;99.90;;;;;;4957910;28;20069;-83
2023/08/30 14:30:09;;;;;;;8.50;7.22;;;25.80;99.90;;;;;;4943094;28;20039;-82
2023/08/30 14:32:37;;;;;;;9.30;6.78;;;25.60;99.90;;;;;;4959851;28;20070;-81
2023/08/30 14:35:05;;;;;;;9.50;7.25;;;25.70;99.90;;;;;;4961907;28;20046;-84
2023/08/30 14:37:34;;;;;;;7.72;6.38;;;25.90;99.90;;;;;;4961025;28;20054;-84
2023/08/30 14:40:01;;;;;;;8.50;6.97;;;25.80;99.90;;;;;;4957322;28;20518;-83
2023/08/30 14:42:29;;;;;;;7.85;7.00;;;25.80;99.90;;;;;;4959466;28;20058;-83
2023/08/30 14:44:57;;;;;;;9.00;7.38;;;25.90;99.90;;;;;;4958057;28;20054;-82
2023/08/30 14:47:25;;;;;;;9.05;7.30;;;25.90;99.90;;;;;;4958574;28;20098;-83
2023/08/30 14:49:53;;;;;;;9.40;7.45;;;25.70;99.90;;;;;;4957700;28;20039;-85
2023/08/30 14:52:20;;;;;;;10.75;7.78;;;25.60;99.90;;;;;;4949875;28;20058;-83
2023/08/30 14:54:48;;;;;;;9.73;7.55;;;25.40;99.90;;;;;;4957005;28;20130;-82
2023/08/30 14:57:15;;;;;;;11.32;9.77;;;25.40;99.90;;;;;;4949505;28;20077;-82